sensor_id;sensor_type;location;lat;lon;timestamp;pressure;altitude;pressure_sealevel;temperature;humidity
9839;BME280;4958;48.150;11.506;2024-01-11T00:02:12;96309.53;;;-1.43;84.60
9839;BME280;4958;48.150;11.506;2024-01-11T00:04:43;96287.38;;;-1.38;84.03
9839;BME280;4958;48.150;11.506;2024-01-11T00:07:18;96291.22;;;-1.47;83.70
9839;BME280;4958;48.150;11.506;2024-01-11T00:09:44;96291.47;;;-1.51;84.32
9839;BME280;4958;48.150;11.506;2024-01-11T00:12:11;96291.84;;;-1.43;84.10
9839;BME280;4958;48.150;11.506;2024-01-11T00:15:02;96286.91;;;-1.30;83.79
9839;BME280;4958;48.150;11.506;2024-01-11T00:17:35;96275.50;;;-1.22;82.70
9839;BME280;4958;48.150;11.506;2024-01-11T00:20:15;96261.69;;;-1.16;82.75
9839;BME280;4958;48.150;11.506;2024-01-11T00:22:46;96242.31;;;-1.16;82.07
9839;BME280;4958;48.150;11.506;2024-01-11T00:25:12;96221.06;;;-1.13;81.81
9839;BME280;4958;48.150;11.506;2024-01-11T00:27:43;96217.94;;;-1.17;81.70
9839;BME280;4958;48.150;11.506;2024-01-11T00:30:11;96216.47;;;-1.21;81.65
9839;BME280;4958;48.150;11.506;2024-01-11T00:32:49;96221.38;;;-1.18;81.67
9839;BME280;4958;48.150;11.506;2024-01-11T00:35:24;96223.00;;;-1.17;81.50
9839;BME280;4958;48.150;11.506;2024-01-11T00:38:06;96213.78;;;-1.18;81.20
9839;BME280;4958;48.150;11.506;2024-01-11T00:40:35;96199.63;;;-1.20;80.59
9839;BME280;4958;48.150;11.506;2024-01-11T00:43:11;96203.84;;;-1.21;80.67
9839;BME280;4958;48.150;11.506;2024-01-11T00:45:41;96190.50;;;-1.23;80.68
9839;BME280;4958;48.150;11.506;2024-01-11T00:48:07;96198.88;;;-1.36;80.89
9839;BME280;4958;48.150;11.506;2024-01-11T00:50:35;96206.97;;;-1.46;81.10
9839;BME280;4958;48.150;11.506;2024-01-11T00:53:02;96226.94;;;-1.41;81.36
9839;BME280;4958;48.150;11.506;2024-01-11T00:55:28;96211.75;;;-1.55;81.63
9839;BME280;4958;48.150;11.506;2024-01-11T00:57:55;96233.22;;;-1.48;82.02
9839;BME280;4958;48.150;11.506;2024-01-11T01:00:23;96241.53;;;-1.46;81.85
9839;BME280;4958;48.150;11.506;2024-01-11T01:02:50;96239.63;;;-1.43;81.54
9839;BME280;4958;48.150;11.506;2024-01-11T01:05:17;96234.94;;;-1.49;81.21
9839;BME280;4958;48.150;11.506;2024-01-11T01:07:43;96225.72;;;-1.50;81.34
9839;BME280;4958;48.150;11.506;2024-01-11T01:10:11;96227.53;;;-1.52;81.25
9839;BME280;4958;48.150;11.506;2024-01-11T01:12:37;96235.19;;;-1.53;81.25
9839;BME280;4958;48.150;11.506;2024-01-11T01:15:08;96236.63;;;-1.49;81.10
9839;BME280;4958;48.150;11.506;2024-01-11T01:17:35;96214.63;;;-1.47;80.84
9839;BME280;4958;48.150;11.506;2024-01-11T01:20:04;96211.03;;;-1.43;80.57
9839;BME280;4958;48.150;11.506;2024-01-11T01:22:30;96205.09;;;-1.42;80.43
9839;BME280;4958;48.150;11.506;2024-01-11T01:24:57;96195.44;;;-1.50;80.45
9839;BME280;4958;48.150;11.506;2024-01-11T01:27:23;96210.50;;;-1.48;80.42
9839;BME280;4958;48.150;11.506;2024-01-11T01:29:49;96202.34;;;-1.53;80.30
9839;BME280;4958;48.150;11.506;2024-01-11T01:32:16;96203.81;;;-1.49;80.13
9839;BME280;4958;48.150;11.506;2024-01-11T01:34:42;96199.38;;;-1.60;80.03
9839;BME280;4958;48.150;11.506;2024-01-11T01:37:12;96215.84;;;-1.68;80.62
9839;BME280;4958;48.150;11.506;2024-01-11T01:39:49;96232.88;;;-1.72;81.00
9839;BME280;4958;48.150;11.506;2024-01-11T01:42:32;96270.22;;;-2.09;82.83
9839;BME280;4958;48.150;11.506;2024-01-11T01:45:01;96314.44;;;-2.17;83.80
9839;BME280;4958;48.150;11.506;2024-01-11T01:47:37;96348.34;;;-2.23;84.87
9839;BME280;4958;48.150;11.506;2024-01-11T01:50:09;96359.81;;;-2.17;85.39
9839;BME280;4958;48.150;11.506;2024-01-11T01:52:47;96345.97;;;-2.10;84.71
9839;BME280;4958;48.150;11.506;2024-01-11T01:55:17;96349.97;;;-2.22;84.76
9839;BME280;4958;48.150;11.506;2024-01-11T01:57:47;96352.06;;;-2.30;84.99
9839;BME280;4958;48.150;11.506;2024-01-11T02:00:15;96361.44;;;-2.32;85.27
9839;BME280;4958;48.150;11.506;2024-01-11T02:02:47;96368.28;;;-2.18;85.24
9839;BME280;4958;48.150;11.506;2024-01-11T02:05:16;96354.22;;;-2.06;84.55
9839;BME280;4958;48.150;11.506;2024-01-11T02:07:44;96324.59;;;-2.03;83.75
9839;BME280;4958;48.150;11.506;2024-01-11T02:10:14;96303.84;;;-2.08;82.85
9839;BME280;4958;48.150;11.506;2024-01-11T02:12:43;96297.25;;;-2.11;82.77
9839;BME280;4958;48.150;11.506;2024-01-11T02:15:10;96300.56;;;-2.10;82.69
9839;BME280;4958;48.150;11.506;2024-01-11T02:17:41;96297.06;;;-2.08;82.42
9839;BME280;4958;48.150;11.506;2024-01-11T02:20:13;96281.63;;;-2.01;82.16
9839;BME280;4958;48.150;11.506;2024-01-11T02:23:05;96261.53;;;-2.03;81.65
9839;BME280;4958;48.150;11.506;2024-01-11T02:25:36;96239.97;;;-2.24;81.30
9839;BME280;4958;48.150;11.506;2024-01-11T02:28:03;96253.72;;;-2.30;81.68
9839;BME280;4958;48.150;11.506;2024-01-11T02:30:36;96272.41;;;-2.50;82.65
9839;BME280;4958;48.150;11.506;2024-01-11T02:33:05;96314.25;;;-2.79;84.17
9839;BME280;4958;48.150;11.506;2024-01-11T02:35:38;96357.09;;;-2.79;85.37
9839;BME280;4958;48.150;11.506;2024-01-11T02:38:28;96359.88;;;-2.67;85.54
9839;BME280;4958;48.150;11.506;2024-01-11T02:41:00;96351.00;;;-2.41;84.56
9839;BME280;4958;48.150;11.506;2024-01-11T02:43:29;96326.28;;;-2.35;83.84
9839;BME280;4958;48.150;11.506;2024-01-11T02:45:56;96299.84;;;-2.44;83.54
9839;BME280;4958;48.150;11.506;2024-01-11T02:48:27;96310.56;;;-2.56;83.80
9839;BME280;4958;48.150;11.506;2024-01-11T02:50:53;96315.94;;;-2.46;84.05
9839;BME280;4958;48.150;11.506;2024-01-11T02:53:20;96314.78;;;-2.56;83.98
9839;BME280;4958;48.150;11.506;2024-01-11T02:55:49;96327.56;;;-2.44;84.32
9839;BME280;4958;48.150;11.506;2024-01-11T02:58:23;96309.38;;;-2.33;83.96
9839;BME280;4958;48.150;11.506;2024-01-11T03:00:49;96286.50;;;-2.30;82.97
9839;BME280;4958;48.150;11.506;2024-01-11T03:03:16;96277.81;;;-2.24;82.72
9839;BME280;4958;48.150;11.506;2024-01-11T03:05:42;96279.59;;;-2.11;82.51
9839;BME280;4958;48.150;11.506;2024-01-11T03:08:09;96259.81;;;-2.02;82.06
9839;BME280;4958;48.150;11.506;2024-01-11T03:10:37;96244.28;;;-1.95;81.36
9839;BME280;4958;48.150;11.506;2024-01-11T03:13:05;96220.09;;;-1.99;80.89
9839;BME280;4958;48.150;11.506;2024-01-11T03:15:32;96221.25;;;-2.04;80.98
9839;BME280;4958;48.150;11.506;2024-01-11T03:17:59;96217.91;;;-2.05;80.64
9839;BME280;4958;48.150;11.506;2024-01-11T03:20:25;96214.00;;;-2.11;81.03
9839;BME280;4958;48.150;11.506;2024-01-11T03:22:52;96231.69;;;-2.26;81.53
9839;BME280;4958;48.150;11.506;2024-01-11T03:25:19;96250.88;;;-2.24;82.39
9839;BME280;4958;48.150;11.506;2024-01-11T03:27:45;96253.66;;;-2.13;82.47
9839;BME280;4958;48.150;11.506;2024-01-11T03:30:12;96227.09;;;-2.04;81.69
9839;BME280;4958;48.150;11.506;2024-01-11T03:32:45;96217.41;;;-1.96;81.27
9839;BME280;4958;48.150;11.506;2024-01-11T03:35:11;96206.06;;;-1.89;80.76
9839;BME280;4958;48.150;11.506;2024-01-11T03:37:40;96190.91;;;-1.89;80.21
9839;BME280;4958;48.150;11.506;2024-01-11T03:40:07;96183.19;;;-2.16;80.76
9839;BME280;4958;48.150;11.506;2024-01-11T03:42:33;96201.66;;;-2.15;81.05
9839;BME280;4958;48.150;11.506;2024-01-11T03:45:07;96208.66;;;-2.20;81.61
9839;BME280;4958;48.150;11.506;2024-01-11T03:47:44;96232.56;;;-2.27;82.22
9839;BME280;4958;48.150;11.506;2024-01-11T03:50:18;96239.31;;;-2.28;82.57
9839;BME280;4958;48.150;11.506;2024-01-11T03:52:54;96239.66;;;-2.34;82.72
9839;BME280;4958;48.150;11.506;2024-01-11T03:55:34;96254.53;;;-2.29;83.28
9839;BME280;4958;48.150;11.506;2024-01-11T03:58:19;96262.66;;;-2.24;83.27
9839;BME280;4958;48.150;11.506;2024-01-11T04:00:54;96253.16;;;-2.35;83.25
9839;BME280;4958;48.150;11.506;2024-01-11T04:03:22;96267.66;;;-2.38;83.94
9839;BME280;4958;48.150;11.506;2024-01-11T04:05:54;96271.28;;;-2.28;83.70
9839;BME280;4958;48.150;11.506;2024-01-11T04:08:30;96264.31;;;-2.23;83.77
9839;BME280;4958;48.150;11.506;2024-01-11T04:10:57;96289.03;;;-2.14;84.87
9839;BME280;4958;48.150;11.506;2024-01-11T04:13:26;96287.31;;;-1.98;84.32
9839;BME280;4958;48.150;11.506;2024-01-11T04:15:53;96255.34;;;-1.97;83.23
9839;BME280;4958;48.150;11.506;2024-01-11T04:18:22;96237.78;;;-2.15;82.77
9839;BME280;4958;48.150;11.506;2024-01-11T04:20:50;96260.22;;;-2.10;83.01
9839;BME280;4958;48.150;11.506;2024-01-11T04:23:24;96275.63;;;-2.15;83.65
9839;BME280;4958;48.150;11.506;2024-01-11T04:25:55;96292.31;;;-2.12;84.00
9839;BME280;4958;48.150;11.506;2024-01-11T04:28:27;96289.19;;;-2.01;83.87
9839;BME280;4958;48.150;11.506;2024-01-11T04:31:02;96280.13;;;-1.90;83.06
9839;BME280;4958;48.150;11.506;2024-01-11T04:33:34;96266.22;;;-1.81;82.60
9839;BME280;4958;48.150;11.506;2024-01-11T04:36:00;96238.94;;;-1.75;81.44
9839;BME280;4958;48.150;11.506;2024-01-11T04:38:27;96214.41;;;-1.73;81.05
9839;BME280;4958;48.150;11.506;2024-01-11T04:40:53;96186.38;;;-1.68;80.31
9839;BME280;4958;48.150;11.506;2024-01-11T04:43:22;96167.97;;;-1.70;79.46
9839;BME280;4958;48.150;11.506;2024-01-11T04:45:54;96160.31;;;-1.83;79.42
9839;BME280;4958;48.150;11.506;2024-01-11T04:48:20;96163.00;;;-1.86;79.63
9839;BME280;4958;48.150;11.506;2024-01-11T04:51:04;96178.78;;;-1.82;80.03
9839;BME280;4958;48.150;11.506;2024-01-11T04:53:37;96182.13;;;-1.82;79.84
9839;BME280;4958;48.150;11.506;2024-01-11T04:56:18;96165.44;;;-1.84;79.36
9839;BME280;4958;48.150;11.506;2024-01-11T04:58:54;96169.84;;;-1.88;79.72
9839;BME280;4958;48.150;11.506;2024-01-11T05:01:20;96178.47;;;-1.92;79.65
9839;BME280;4958;48.150;11.506;2024-01-11T05:03:50;96186.53;;;-1.85;79.73
9839;BME280;4958;48.150;11.506;2024-01-11T05:06:21;96193.25;;;-2.00;80.43
9839;BME280;4958;48.150;11.506;2024-01-11T05:08:50;96203.75;;;-2.08;80.51
9839;BME280;4958;48.150;11.506;2024-01-11T05:11:17;96196.75;;;-2.02;80.20
9839;BME280;4958;48.150;11.506;2024-01-11T05:13:47;96185.09;;;-2.05;79.88
9839;BME280;4958;48.150;11.506;2024-01-11T05:16:21;96192.50;;;-2.02;79.92
9839;BME280;4958;48.150;11.506;2024-01-11T05:18:53;96182.97;;;-1.97;79.92
9839;BME280;4958;48.150;11.506;2024-01-11T05:21:23;96170.00;;;-1.91;79.27
9839;BME280;4958;48.150;11.506;2024-01-11T05:23:50;96146.84;;;-1.97;78.94
9839;BME280;4958;48.150;11.506;2024-01-11T05:26:18;96150.22;;;-2.13;79.29
9839;BME280;4958;48.150;11.506;2024-01-11T05:28:45;96158.78;;;-2.15;79.29
9839;BME280;4958;48.150;11.506;2024-01-11T05:31:13;96149.44;;;-2.13;79.41
9839;BME280;4958;48.150;11.506;2024-01-11T05:33:40;96162.72;;;-2.11;79.49
9839;BME280;4958;48.150;11.506;2024-01-11T05:36:06;96177.47;;;-2.03;79.59
9839;BME280;4958;48.150;11.506;2024-01-11T05:38:35;96177.03;;;-1.96;79.56
9839;BME280;4958;48.150;11.506;2024-01-11T05:41:01;96166.94;;;-1.96;79.02
9839;BME280;4958;48.150;11.506;2024-01-11T05:43:28;96149.53;;;-2.00;78.32
9839;BME280;4958;48.150;11.506;2024-01-11T05:45:54;96144.88;;;-2.22;78.56
9839;BME280;4958;48.150;11.506;2024-01-11T05:48:24;96170.84;;;-2.36;79.27
9839;BME280;4958;48.150;11.506;2024-01-11T05:50:50;96196.00;;;-2.34;79.88
9839;BME280;4958;48.150;11.506;2024-01-11T05:53:50;96183.03;;;-2.28;79.28
9839;BME280;4958;48.150;11.506;2024-01-11T05:56:33;96158.91;;;-2.32;78.61
9839;BME280;4958;48.150;11.506;2024-01-11T06:03:56;96157.84;;;-2.44;78.61
9839;BME280;4958;48.150;11.506;2024-01-11T06:05:56;96160.78;;;-2.36;78.62
9839;BME280;4958;48.150;11.506;2024-01-11T06:08:46;96137.56;;;-2.27;78.12
9839;BME280;4958;48.150;11.506;2024-01-11T06:15:15;96170.53;;;-2.61;79.28
9839;BME280;4958;48.150;11.506;2024-01-11T06:20:27;96202.03;;;-2.53;79.56
9839;BME280;4958;48.150;11.506;2024-01-11T06:21:04;96211.28;;;-2.37;79.69
9839;BME280;4958;48.150;11.506;2024-01-11T06:23:52;96219.06;;;-2.26;79.40
9839;BME280;4958;48.150;11.506;2024-01-11T06:26:53;96197.44;;;-2.30;78.69
9839;BME280;4958;48.150;11.506;2024-01-11T06:30:04;96215.59;;;-2.55;79.60
9839;BME280;4958;48.150;11.506;2024-01-11T06:32:33;96287.88;;;-2.56;81.60
9839;BME280;4958;48.150;11.506;2024-01-11T06:34:59;96247.47;;;-2.70;80.52
9839;BME280;4958;48.150;11.506;2024-01-11T06:37:30;96283.00;;;-2.59;81.50
9839;BME280;4958;48.150;11.506;2024-01-11T06:39:59;96300.63;;;-2.74;82.12
9839;BME280;4958;48.150;11.506;2024-01-11T06:42:29;96409.47;;;-2.85;85.94
9839;BME280;4958;48.150;11.506;2024-01-11T06:44:58;96395.09;;;-2.66;85.42
9839;BME280;4958;48.150;11.506;2024-01-11T06:47:27;96439.13;;;-2.56;86.51
9839;BME280;4958;48.150;11.506;2024-01-11T06:50:12;96379.31;;;-2.36;83.76
9839;BME280;4958;48.150;11.506;2024-01-11T06:52:52;96427.16;;;-2.35;85.72
9839;BME280;4958;48.150;11.506;2024-01-11T06:55:24;96413.41;;;-2.29;85.08
9839;BME280;4958;48.150;11.506;2024-01-11T06:57:59;96366.72;;;-2.21;83.08
9839;BME280;4958;48.150;11.506;2024-01-11T07:00:41;96311.97;;;-2.34;81.65
9839;BME280;4958;48.150;11.506;2024-01-11T07:03:11;96301.00;;;-2.33;81.38
9839;BME280;4958;48.150;11.506;2024-01-11T07:05:42;96262.59;;;-2.70;81.23
9839;BME280;4958;48.150;11.506;2024-01-11T07:08:26;96296.03;;;-2.84;81.61
9839;BME280;4958;48.150;11.506;2024-01-11T07:10:56;96320.81;;;-2.92;82.32
9839;BME280;4958;48.150;11.506;2024-01-11T07:13:23;96331.25;;;-2.99;83.00
9839;BME280;4958;48.150;11.506;2024-01-11T07:16:03;96345.69;;;-3.03;83.11
9839;BME280;4958;48.150;11.506;2024-01-11T07:18:33;96352.91;;;-3.13;83.63
9839;BME280;4958;48.150;11.506;2024-01-11T07:21:09;96386.31;;;-3.09;84.56
9839;BME280;4958;48.150;11.506;2024-01-11T07:23:46;96391.25;;;-3.07;84.65
9839;BME280;4958;48.150;11.506;2024-01-11T07:26:21;96388.66;;;-3.06;84.38
9839;BME280;4958;48.150;11.506;2024-01-11T07:28:52;96375.34;;;-2.91;83.91
9839;BME280;4958;48.150;11.506;2024-01-11T07:33:50;96346.63;;;-2.71;82.66
9839;BME280;4958;48.150;11.506;2024-01-11T07:44:58;96342.19;;;-2.50;81.91
9839;BME280;4958;48.150;11.506;2024-01-11T07:47:24;96348.25;;;-2.37;81.96
9839;BME280;4958;48.150;11.506;2024-01-11T07:49:56;96349.22;;;-2.24;82.05
9839;BME280;4958;48.150;11.506;2024-01-11T07:52:22;96337.72;;;-2.12;81.64
9839;BME280;4958;48.150;11.506;2024-01-11T07:58:20;96275.44;;;-2.12;80.20
9839;BME280;4958;48.150;11.506;2024-01-11T08:00:51;96281.88;;;-2.06;79.77
9839;BME280;4958;48.150;11.506;2024-01-11T08:03:42;96278.28;;;-2.02;79.42
9839;BME280;4958;48.150;11.506;2024-01-11T08:09:39;96298.78;;;-2.08;80.35
9839;BME280;4958;48.150;11.506;2024-01-11T08:12:50;96306.03;;;-2.02;80.36
9839;BME280;4958;48.150;11.506;2024-01-11T08:24:38;96320.53;;;-2.21;80.97
9839;BME280;4958;48.150;11.506;2024-01-11T08:34:14;96351.84;;;-1.78;80.67
9839;BME280;4958;48.150;11.506;2024-01-11T08:37:20;96324.44;;;-2.00;80.32
9839;BME280;4958;48.150;11.506;2024-01-11T08:40:57;96347.97;;;-1.99;81.20
9839;BME280;4958;48.150;11.506;2024-01-11T08:45:56;96347.88;;;-1.82;80.86
9839;BME280;4958;48.150;11.506;2024-01-11T08:46:52;96357.66;;;-1.76;80.29
9839;BME280;4958;48.150;11.506;2024-01-11T08:49:30;96364.63;;;-1.65;79.89
9839;BME280;4958;48.150;11.506;2024-01-11T08:56:01;96351.13;;;-1.80;79.07
9839;BME280;4958;48.150;11.506;2024-01-11T09:07:25;96287.47;;;-1.85;77.54
9839;BME280;4958;48.150;11.506;2024-01-11T09:12:21;96301.47;;;-2.11;77.70
9839;BME280;4958;48.150;11.506;2024-01-11T09:15:08;96295.13;;;-2.02;77.59
9839;BME280;4958;48.150;11.506;2024-01-11T09:18:28;96276.72;;;-1.89;77.00
9839;BME280;4958;48.150;11.506;2024-01-11T09:24:51;96238.97;;;-2.06;76.33
9839;BME280;4958;48.150;11.506;2024-01-11T09:30:57;96250.06;;;-1.93;76.11
9839;BME280;4958;48.150;11.506;2024-01-11T09:51:52;96252.66;;;-2.10;76.44
9839;BME280;4958;48.150;11.506;2024-01-11T09:54:33;96251.69;;;-2.08;76.49
9839;BME280;4958;48.150;11.506;2024-01-11T09:57:06;96221.69;;;-2.12;75.92
9839;BME280;4958;48.150;11.506;2024-01-11T09:59:37;96223.38;;;-2.28;76.25
9839;BME280;4958;48.150;11.506;2024-01-11T10:02:07;96229.50;;;-2.32;76.35
9839;BME280;4958;48.150;11.506;2024-01-11T10:04:42;96253.41;;;-2.24;76.70
9839;BME280;4958;48.150;11.506;2024-01-11T10:07:22;96229.25;;;-2.12;76.14
9839;BME280;4958;48.150;11.506;2024-01-11T10:09:50;96225.38;;;-2.03;76.38
9839;BME280;4958;48.150;11.506;2024-01-11T10:12:26;96206.41;;;-1.95;75.88
9839;BME280;4958;48.150;11.506;2024-01-11T10:14:54;96197.69;;;-1.89;75.71
9839;BME280;4958;48.150;11.506;2024-01-11T10:17:35;96189.66;;;-1.96;75.17
9839;BME280;4958;48.150;11.506;2024-01-11T10:20:08;96199.19;;;-2.01;75.88
9839;BME280;4958;48.150;11.506;2024-01-11T10:22:46;96215.41;;;-1.91;76.36
9839;BME280;4958;48.150;11.506;2024-01-11T10:25:23;96188.06;;;-1.83;75.77
9839;BME280;4958;48.150;11.506;2024-01-11T10:27:53;96185.78;;;-1.87;75.82
9839;BME280;4958;48.150;11.506;2024-01-11T10:30:34;96194.41;;;-1.76;75.79
9839;BME280;4958;48.150;11.506;2024-01-11T10:33:09;96190.25;;;-1.77;75.64
9839;BME280;4958;48.150;11.506;2024-01-11T10:35:39;96201.81;;;-1.58;75.54
9839;BME280;4958;48.150;11.506;2024-01-11T10:38:20;96189.56;;;-1.50;75.41
9839;BME280;4958;48.150;11.506;2024-01-11T10:40:53;96180.41;;;-1.37;75.27
9839;BME280;4958;48.150;11.506;2024-01-11T10:43:31;96181.81;;;-1.33;75.32
9839;BME280;4958;48.150;11.506;2024-01-11T10:46:01;96165.69;;;-1.30;75.40
9839;BME280;4958;48.150;11.506;2024-01-11T10:48:37;96173.25;;;-1.45;75.58
9839;BME280;4958;48.150;11.506;2024-01-11T10:51:20;96508.88;;;-1.24;88.46
9839;BME280;4958;48.150;11.506;2024-01-11T10:53:49;96296.78;;;-1.12;78.96
9839;BME280;4958;48.150;11.506;2024-01-11T10:56:24;96204.19;;;-1.13;77.02
9839;BME280;4958;48.150;11.506;2024-01-11T10:58:54;96194.31;;;-1.16;76.40
9839;BME280;4958;48.150;11.506;2024-01-11T11:01:24;96206.13;;;-1.16;76.85
9839;BME280;4958;48.150;11.506;2024-01-11T11:04:05;96189.59;;;-1.22;76.57
9839;BME280;4958;48.150;11.506;2024-01-11T11:06:48;96166.06;;;-1.36;76.05
9839;BME280;4958;48.150;11.506;2024-01-11T11:09:20;96160.91;;;-1.35;75.89
9839;BME280;4958;48.150;11.506;2024-01-11T11:11:49;96164.22;;;-1.34;76.12
9839;BME280;4958;48.150;11.506;2024-01-11T11:14:15;96169.09;;;-1.31;76.28
9839;BME280;4958;48.150;11.506;2024-01-11T11:16:44;96169.91;;;-1.31;76.04
9839;BME280;4958;48.150;11.506;2024-01-11T11:19:15;96171.38;;;-1.27;76.18
9839;BME280;4958;48.150;11.506;2024-01-11T11:21:42;96177.16;;;-1.25;75.96
9839;BME280;4958;48.150;11.506;2024-01-11T11:24:12;96169.94;;;-1.17;76.06
9839;BME280;4958;48.150;11.506;2024-01-11T11:26:49;96190.94;;;-1.30;76.74
9839;BME280;4958;48.150;11.506;2024-01-11T11:29:22;96186.59;;;-1.28;76.68
9839;BME280;4958;48.150;11.506;2024-01-11T11:32:02;96183.00;;;-1.24;76.04
9839;BME280;4958;48.150;11.506;2024-01-11T11:34:42;96193.53;;;-1.32;76.16
9839;BME280;4958;48.150;11.506;2024-01-11T11:37:09;96234.03;;;-1.48;77.41
9839;BME280;4958;48.150;11.506;2024-01-11T11:39:51;96243.63;;;-1.38;77.29
9839;BME280;4958;48.150;11.506;2024-01-11T11:42:23;96232.97;;;-1.29;77.34
9839;BME280;4958;48.150;11.506;2024-01-11T11:44:57;96206.38;;;-1.21;76.41
9839;BME280;4958;48.150;11.506;2024-01-11T11:47:33;96190.03;;;-1.15;75.98
9839;BME280;4958;48.150;11.506;2024-01-11T11:50:08;96198.72;;;-1.19;76.31
9839;BME280;4958;48.150;11.506;2024-01-11T11:52:41;96206.72;;;-1.13;76.40
9839;BME280;4958;48.150;11.506;2024-01-11T11:55:17;96194.09;;;-1.13;76.32
9839;BME280;4958;48.150;11.506;2024-01-11T11:57:54;96178.59;;;-1.07;76.12
9839;BME280;4958;48.150;11.506;2024-01-11T12:00:38;96172.81;;;-1.09;75.60
9839;BME280;4958;48.150;11.506;2024-01-11T12:03:09;96173.63;;;-1.08;75.75
9839;BME280;4958;48.150;11.506;2024-01-11T12:05:45;96200.44;;;-1.06;75.99
9839;BME280;4958;48.150;11.506;2024-01-11T12:08:22;96184.19;;;-1.01;76.14
9839;BME280;4958;48.150;11.506;2024-01-11T12:10:55;96171.47;;;-1.00;75.95
9839;BME280;4958;48.150;11.506;2024-01-11T12:13:39;96169.94;;;-1.02;75.66
9839;BME280;4958;48.150;11.506;2024-01-11T12:16:09;96198.72;;;-1.05;76.58
9839;BME280;4958;48.150;11.506;2024-01-11T12:18:43;96200.06;;;-0.99;76.29
9839;BME280;4958;48.150;11.506;2024-01-11T12:21:25;96157.13;;;-0.99;76.17
9839;BME280;4958;48.150;11.506;2024-01-11T12:24:01;96143.28;;;-0.94;75.66
9839;BME280;4958;48.150;11.506;2024-01-11T12:26:37;96113.97;;;-0.96;75.36
9839;BME280;4958;48.150;11.506;2024-01-11T12:29:13;96122.84;;;-1.18;75.48
9839;BME280;4958;48.150;11.506;2024-01-11T12:31:51;96154.22;;;-1.22;76.53
9839;BME280;4958;48.150;11.506;2024-01-11T12:34:28;96181.56;;;-1.14;76.36
9839;BME280;4958;48.150;11.506;2024-01-11T12:37:07;96198.06;;;-1.09;76.85
9839;BME280;4958;48.150;11.506;2024-01-11T12:39:39;96229.75;;;-1.17;78.13
9839;BME280;4958;48.150;11.506;2024-01-11T12:42:14;96235.88;;;-1.07;77.77
9839;BME280;4958;48.150;11.506;2024-01-11T12:44:43;96211.59;;;-0.95;77.07
9839;BME280;4958;48.150;11.506;2024-01-11T12:47:20;96198.44;;;-0.86;76.19
9839;BME280;4958;48.150;11.506;2024-01-11T12:49:50;96191.22;;;-0.78;75.97
9839;BME280;4958;48.150;11.506;2024-01-11T12:52:22;96194.97;;;-0.71;76.05
9839;BME280;4958;48.150;11.506;2024-01-11T12:54:52;96176.72;;;-0.76;75.65
9839;BME280;4958;48.150;11.506;2024-01-11T12:57:22;96165.13;;;-0.79;75.77
9839;BME280;4958;48.150;11.506;2024-01-11T12:59:50;96173.06;;;-0.85;75.72
9839;BME280;4958;48.150;11.506;2024-01-11T13:02:43;96165.56;;;-0.86;76.43
9839;BME280;4958;48.150;11.506;2024-01-11T13:05:11;96149.31;;;-0.82;75.97
9839;BME280;4958;48.150;11.506;2024-01-11T13:07:52;96157.72;;;-0.96;76.21
9839;BME280;4958;48.150;11.506;2024-01-11T13:10:40;96176.78;;;-1.05;76.92
9839;BME280;4958;48.150;11.506;2024-01-11T13:13:20;96196.09;;;-1.03;77.36
9839;BME280;4958;48.150;11.506;2024-01-11T13:15:55;96208.91;;;-1.07;77.42
9839;BME280;4958;48.150;11.506;2024-01-11T13:18:29;96317.59;;;-1.36;80.71
9839;BME280;4958;48.150;11.506;2024-01-11T13:21:02;96299.13;;;-1.23;79.83
9839;BME280;4958;48.150;11.506;2024-01-11T13:23:43;96264.75;;;-1.11;78.86
9839;BME280;4958;48.150;11.506;2024-01-11T13:26:16;96236.19;;;-0.97;78.01
9839;BME280;4958;48.150;11.506;2024-01-11T13:28:47;96222.00;;;-1.00;77.79
9839;BME280;4958;48.150;11.506;2024-01-11T13:31:15;96218.38;;;-0.96;77.77
9839;BME280;4958;48.150;11.506;2024-01-11T13:33:58;96244.66;;;-0.98;78.08
9839;BME280;4958;48.150;11.506;2024-01-11T13:36:30;96249.88;;;-0.87;78.18
9839;BME280;4958;48.150;11.506;2024-01-11T13:38:57;96256.81;;;-0.77;78.06
9839;BME280;4958;48.150;11.506;2024-01-11T13:41:24;96252.13;;;-0.68;77.90
9839;BME280;4958;48.150;11.506;2024-01-11T13:43:53;96221.19;;;-0.86;77.36
9839;BME280;4958;48.150;11.506;2024-01-11T13:46:23;96252.75;;;-1.08;78.12
9839;BME280;4958;48.150;11.506;2024-01-11T13:48:50;96271.56;;;-0.97;78.51
9839;BME280;4958;48.150;11.506;2024-01-11T13:51:19;96291.22;;;-0.88;78.62
9839;BME280;4958;48.150;11.506;2024-01-11T13:53:58;96297.00;;;-1.00;78.94
9839;BME280;4958;48.150;11.506;2024-01-11T13:56:35;96314.03;;;-1.04;79.23
9839;BME280;4958;48.150;11.506;2024-01-11T13:59:10;96321.47;;;-1.01;79.71
9839;BME280;4958;48.150;11.506;2024-01-11T14:01:48;96334.28;;;-0.90;79.37
9839;BME280;4958;48.150;11.506;2024-01-11T14:04:35;96321.22;;;-0.82;79.21
9839;BME280;4958;48.150;11.506;2024-01-11T14:11:01;96309.28;;;-0.80;78.87
9839;BME280;4958;48.150;11.506;2024-01-11T14:13:40;96282.38;;;-0.81;78.10
9839;BME280;4958;48.150;11.506;2024-01-11T14:16:21;96264.53;;;-0.78;77.62
9839;BME280;4958;48.150;11.506;2024-01-11T14:36:44;96265.94;;;-0.88;77.49
9839;BME280;4958;48.150;11.506;2024-01-11T14:39:39;96260.00;;;-0.87;77.29
9839;BME280;4958;48.150;11.506;2024-01-11T14:42:45;96245.56;;;-0.85;77.03
9839;BME280;4958;48.150;11.506;2024-01-11T14:45:45;96239.78;;;-0.87;76.95
9839;BME280;4958;48.150;11.506;2024-01-11T14:56:09;96260.91;;;-1.02;77.35
9839;BME280;4958;48.150;11.506;2024-01-11T14:59:50;96301.50;;;-1.06;78.08
9839;BME280;4958;48.150;11.506;2024-01-11T15:02:42;96299.78;;;-1.05;77.97
9839;BME280;4958;48.150;11.506;2024-01-11T15:06:05;96281.19;;;-1.04;77.82
9839;BME280;4958;48.150;11.506;2024-01-11T15:08:36;96318.44;;;-1.22;78.84
9839;BME280;4958;48.150;11.506;2024-01-11T15:11:23;96343.69;;;-1.22;79.28
9839;BME280;4958;48.150;11.506;2024-01-11T15:14:28;96350.00;;;-1.15;79.38
9839;BME280;4958;48.150;11.506;2024-01-11T15:17:24;96348.59;;;-1.19;79.63
9839;BME280;4958;48.150;11.506;2024-01-11T15:20:20;96348.13;;;-1.11;79.62
9839;BME280;4958;48.150;11.506;2024-01-11T15:22:55;96345.31;;;-1.21;79.38
9839;BME280;4958;48.150;11.506;2024-01-11T15:25:46;96341.16;;;-1.22;79.75
9839;BME280;4958;48.150;11.506;2024-01-11T15:28:32;96342.72;;;-1.19;79.43
9839;BME280;4958;48.150;11.506;2024-01-11T15:34:42;96329.72;;;-1.13;78.89
9839;BME280;4958;48.150;11.506;2024-01-11T15:37:10;96326.91;;;-1.23;78.93
9839;BME280;4958;48.150;11.506;2024-01-11T15:40:02;96330.50;;;-1.27;79.08
9839;BME280;4958;48.150;11.506;2024-01-11T15:42:29;96361.34;;;-1.36;79.72
9839;BME280;4958;48.150;11.506;2024-01-11T15:48:15;96387.78;;;-1.27;79.69
9839;BME280;4958;48.150;11.506;2024-01-11T15:50:51;96377.75;;;-1.29;79.61